createdAt,value
2018-06-02T00:01:39.230Z,21.80
2018-06-02T00:04:06.834Z,21.80
2018-06-02T00:06:35.212Z,21.80
2018-06-02T00:09:02.823Z,21.80
2018-06-02T00:11:31.238Z,21.80
2018-06-02T00:13:58.729Z,21.70
2018-06-02T00:16:26.291Z,21.70
2018-06-02T00:18:53.808Z,21.80
2018-06-02T00:21:21.476Z,21.70
2018-06-02T00:23:48.995Z,21.70
2018-06-02T00:26:16.569Z,21.70
2018-06-02T00:28:44.102Z,21.70
2018-06-02T00:31:11.635Z,21.70
2018-06-02T00:33:39.893Z,21.80
2018-06-02T00:36:07.429Z,21.70
2018-06-02T00:38:34.922Z,21.70
2018-06-02T00:41:02.465Z,21.70
2018-06-02T00:43:29.978Z,21.70
2018-06-02T00:45:57.535Z,21.70
2018-06-02T00:48:25.056Z,21.80
2018-06-02T00:50:53.394Z,21.70
2018-06-02T00:53:20.903Z,21.70
2018-06-02T00:55:49.165Z,21.70
2018-06-02T00:58:17.483Z,21.70
2018-06-02T01:00:44.998Z,21.70
2018-06-02T01:03:12.538Z,21.70
2018-06-02T01:05:40.058Z,21.70
2018-06-02T01:08:07.609Z,21.70
2018-06-02T01:10:35.120Z,21.70
2018-06-02T01:13:02.654Z,21.70
2018-06-02T01:15:30.158Z,21.70
2018-06-02T01:17:58.462Z,21.60
2018-06-02T01:20:25.968Z,21.60
2018-06-02T01:22:53.501Z,21.60
2018-06-02T01:25:20.986Z,21.60
2018-06-02T01:27:48.525Z,21.60
2018-06-02T01:30:16.027Z,21.60
2018-06-02T01:32:44.339Z,21.60
2018-06-02T01:35:11.838Z,21.60
2018-06-02T01:37:39.342Z,21.60
2018-06-02T01:40:06.871Z,21.70
2018-06-02T01:42:34.361Z,21.70
2018-06-02T01:45:02.725Z,21.70
2018-06-02T01:47:30.229Z,21.70
2018-06-02T01:49:57.759Z,21.70
2018-06-02T01:52:25.262Z,21.70
2018-06-02T01:54:52.849Z,21.60
2018-06-02T01:57:21.111Z,21.60
2018-06-02T01:59:48.634Z,21.60
2018-06-02T02:02:16.127Z,21.60
2018-06-02T02:04:43.708Z,21.60
2018-06-02T02:07:11.983Z,21.60
2018-06-02T02:09:40.271Z,21.60
2018-06-02T02:12:08.535Z,21.60
2018-06-02T02:14:36.841Z,21.60
2018-06-02T02:17:04.348Z,21.50
2018-06-02T02:19:31.895Z,21.50
2018-06-02T02:21:59.431Z,21.50
2018-06-02T02:24:26.935Z,21.50
2018-06-02T02:26:54.475Z,21.50
2018-06-02T02:29:21.976Z,21.50
2018-06-02T02:31:50.283Z,21.40
2018-06-02T02:34:17.778Z,21.40
2018-06-02T02:36:45.337Z,21.40
2018-06-02T02:39:12.829Z,21.40
2018-06-02T02:41:40.403Z,21.40
2018-06-02T02:44:07.902Z,21.40
2018-06-02T02:46:35.435Z,21.40
2018-06-02T02:49:02.930Z,21.30
2018-06-02T02:51:30.476Z,21.30
2018-06-02T02:53:57.970Z,21.30
2018-06-02T02:56:26.262Z,21.30
2018-06-02T02:58:54.527Z,21.30
2018-06-02T03:01:22.847Z,21.30
2018-06-02T03:03:50.355Z,21.30
2018-06-02T03:06:19.263Z,21.30
2018-06-02T03:08:46.759Z,21.30
2018-06-02T03:11:14.583Z,21.30
2018-06-02T03:13:42.080Z,21.30
2018-06-02T03:16:09.595Z,21.20
2018-06-02T03:18:37.891Z,21.20
2018-06-02T03:21:05.390Z,21.20
2018-06-02T03:23:32.938Z,21.20
2018-06-02T03:26:00.434Z,21.20
2018-06-02T03:28:28.839Z,21.10
2018-06-02T03:30:56.353Z,21.10
2018-06-02T03:33:23.890Z,21.10
2018-06-02T03:35:51.390Z,21.10
2018-06-02T03:38:18.928Z,21.10
2018-06-02T03:40:46.421Z,21.10
2018-06-02T03:43:14.726Z,21.10
2018-06-02T03:45:42.234Z,21.10
2018-06-02T03:48:09.775Z,21.10
2018-06-02T03:50:38.031Z,21.10
2018-06-02T03:53:05.596Z,21.10
2018-06-02T03:55:33.098Z,21.10
2018-06-02T03:58:00.641Z,21.10
2018-06-02T04:00:28.180Z,21.10
2018-06-02T04:02:55.733Z,21.10
2018-06-02T04:05:23.229Z,21.20
2018-06-02T04:07:50.710Z,21.20
2018-06-02T04:10:18.242Z,21.20
2018-06-02T04:12:45.745Z,21.30
2018-06-02T04:15:13.266Z,21.30
2018-06-02T04:17:41.531Z,21.40
2018-06-02T04:20:09.064Z,21.40
2018-06-02T04:22:36.578Z,21.40
2018-06-02T04:25:04.886Z,21.40
2018-06-02T04:27:33.306Z,21.40
2018-06-02T04:30:00.844Z,21.40
2018-06-02T04:32:28.343Z,21.40
2018-06-02T04:34:56.673Z,21.50
2018-06-02T04:37:24.169Z,21.50
2018-06-02T04:39:52.472Z,21.50
2018-06-02T04:42:19.996Z,21.60
2018-06-02T04:44:47.538Z,21.50
2018-06-02T04:47:15.056Z,21.60
2018-06-02T04:49:42.598Z,21.60
2018-06-02T04:52:10.863Z,21.70
2018-06-02T04:54:39.319Z,21.80
2018-06-02T04:57:07.619Z,21.70
2018-06-02T04:59:35.888Z,21.80
2018-06-02T05:02:04.194Z,21.90
2018-06-02T05:04:31.741Z,21.80
2018-06-02T05:06:59.238Z,21.90
2018-06-02T05:09:26.754Z,21.90
2018-06-02T05:11:55.046Z,22.00
2018-06-02T05:14:22.534Z,22.00
2018-06-02T05:16:50.829Z,22.10
2018-06-02T05:19:21.165Z,22.10
2018-06-02T05:21:48.702Z,22.10
2018-06-02T05:24:16.216Z,22.10
2018-06-02T05:26:44.514Z,22.10
2018-06-02T05:29:12.021Z,22.10
2018-06-02T05:31:39.578Z,22.20
2018-06-02T05:34:08.002Z,22.20
2018-06-02T05:36:35.546Z,22.20
2018-06-02T05:39:03.822Z,22.30
2018-06-02T05:41:32.134Z,22.30
2018-06-02T05:43:59.667Z,22.30
2018-06-02T05:46:27.206Z,22.40
2018-06-02T05:48:55.467Z,22.60
2018-06-02T05:51:22.995Z,22.50
2018-06-02T05:53:50.508Z,22.60
2018-06-02T05:56:18.064Z,22.60
2018-06-02T05:58:46.368Z,22.70
2018-06-02T06:01:13.907Z,22.70
2018-06-02T06:03:42.170Z,22.80
2018-06-02T06:06:09.680Z,22.80
2018-06-02T06:08:37.181Z,22.80
2018-06-02T06:11:05.967Z,22.90
2018-06-02T06:13:33.453Z,22.90
2018-06-02T06:16:00.949Z,23.00
2018-06-02T06:18:29.274Z,23.20
2018-06-02T06:20:57.541Z,23.20
2018-06-02T06:23:25.072Z,23.20
2018-06-02T06:25:52.569Z,23.20
2018-06-02T06:28:20.885Z,23.30
2018-06-02T06:30:48.374Z,23.30
2018-06-02T06:33:15.910Z,23.40
2018-06-02T06:35:43.401Z,23.40
2018-06-02T06:38:10.947Z,23.50
2018-06-02T06:40:38.463Z,23.60
2018-06-02T06:43:06.014Z,23.60
2018-06-02T06:45:33.557Z,23.50
2018-06-02T06:48:01.864Z,23.50
2018-06-02T06:50:29.370Z,23.40
2018-06-02T06:52:56.930Z,23.50
2018-06-02T06:55:24.431Z,23.40
2018-06-02T06:57:52.216Z,23.50
2018-06-02T07:00:19.746Z,23.60
2018-06-02T07:02:47.370Z,23.60
2018-06-02T07:05:14.874Z,23.60
2018-06-02T07:07:42.478Z,23.70
2018-06-02T07:10:09.993Z,23.80
2018-06-02T07:12:37.558Z,23.70
2018-06-02T07:15:05.071Z,23.80
2018-06-02T07:17:32.623Z,23.80
2018-06-02T07:20:00.178Z,23.60
2018-06-02T07:22:27.763Z,23.70
2018-06-02T07:24:55.340Z,23.50
2018-06-02T07:27:22.894Z,23.50
2018-06-02T07:29:50.414Z,23.50
2018-06-02T07:32:17.956Z,23.50
2018-06-02T07:34:45.463Z,23.50
2018-06-02T07:37:13.362Z,23.50
2018-06-02T07:39:40.882Z,23.70
2018-06-02T07:42:09.145Z,23.90
2018-06-02T07:44:36.687Z,23.90
2018-06-02T07:47:04.195Z,24.00
2018-06-02T07:49:31.742Z,24.20
2018-06-02T07:52:00.035Z,24.50
2018-06-02T07:54:27.622Z,24.40
2018-06-02T07:56:55.158Z,24.60
2018-06-02T07:59:22.699Z,24.70
2018-06-02T08:01:50.206Z,24.70
2018-06-02T08:04:17.784Z,24.70
2018-06-02T08:06:45.291Z,24.70
2018-06-02T08:09:12.847Z,24.80
2018-06-02T08:11:41.149Z,24.70
2018-06-02T08:14:08.690Z,24.70
2018-06-02T08:16:36.179Z,24.80
2018-06-02T08:19:03.719Z,24.70
2018-06-02T08:21:31.296Z,24.70
2018-06-02T08:24:00.637Z,24.60
2018-06-02T08:26:28.997Z,24.60
2018-06-02T08:28:56.536Z,24.60
2018-06-02T08:31:24.047Z,24.60
2018-06-02T08:33:53.448Z,24.80
2018-06-02T08:36:20.992Z,24.80
2018-06-02T08:38:48.553Z,24.80
2018-06-02T08:41:16.116Z,24.90
2018-06-02T08:43:44.411Z,24.90
2018-06-02T08:46:12.752Z,25.00
2018-06-02T08:48:40.255Z,25.00
2018-06-02T08:51:07.806Z,25.10
2018-06-02T08:53:36.071Z,25.20
2018-06-02T08:56:03.670Z,25.20
2018-06-02T08:58:31.189Z,25.40
2018-06-02T09:00:59.540Z,25.60
2018-06-02T09:03:27.077Z,25.60
2018-06-02T09:05:58.304Z,25.80
2018-06-02T09:08:25.831Z,25.90
2018-06-02T09:10:54.266Z,26.00
2018-06-02T09:13:21.821Z,26.10
2018-06-02T09:15:51.163Z,26.00
2018-06-02T09:18:18.710Z,25.90
2018-06-02T09:20:46.219Z,25.70
2018-06-02T09:23:13.765Z,25.60
2018-06-02T09:25:42.048Z,25.50
2018-06-02T09:28:09.607Z,25.50
2018-06-02T09:30:37.139Z,25.50
2018-06-02T09:33:05.472Z,25.80
2018-06-02T09:35:32.985Z,25.80
2018-06-02T09:38:00.588Z,26.10
2018-06-02T09:40:28.082Z,26.30
2018-06-02T09:42:56.504Z,26.40
2018-06-02T09:45:24.042Z,26.30
2018-06-02T09:47:51.610Z,26.20
2018-06-02T09:50:19.159Z,26.00
2018-06-02T09:52:47.527Z,26.00
2018-06-02T09:55:15.051Z,25.90
2018-06-02T09:57:42.590Z,25.90
2018-06-02T10:00:10.107Z,25.90
2018-06-02T10:02:38.391Z,25.90
2018-06-02T10:05:06.704Z,25.80
2018-06-02T10:07:34.226Z,25.80
2018-06-02T10:10:01.774Z,25.70
2018-06-02T10:12:29.281Z,25.60
2018-06-02T10:14:56.822Z,25.40
2018-06-02T10:17:24.336Z,25.30
2018-06-02T10:19:51.892Z,25.30
2018-06-02T10:22:19.424Z,25.50
2018-06-02T10:24:46.969Z,25.80
2018-06-02T10:27:14.477Z,26.10
2018-06-02T10:29:42.090Z,26.20
2018-06-02T10:32:09.573Z,26.20
2018-06-02T10:34:37.145Z,26.20
2018-06-02T10:37:04.685Z,26.40
2018-06-02T10:39:32.461Z,26.60
2018-06-02T10:41:59.968Z,26.80
2018-06-02T10:44:28.293Z,26.90
2018-06-02T10:46:55.839Z,26.90
2018-06-02T10:49:23.380Z,27.10
2018-06-02T10:51:50.894Z,27.30
2018-06-02T10:54:18.459Z,27.50
2018-06-02T10:56:45.978Z,27.60
2018-06-02T10:59:13.526Z,27.50
2018-06-02T11:01:41.115Z,27.50
2018-06-02T11:04:08.652Z,27.50
2018-06-02T11:06:36.195Z,27.50
2018-06-02T11:09:03.730Z,27.40
2018-06-02T11:11:31.284Z,27.30
2018-06-02T11:13:59.561Z,27.00
2018-06-02T11:16:27.884Z,26.90
2018-06-02T11:18:55.386Z,26.90
2018-06-02T11:21:22.922Z,26.80
2018-06-02T11:23:50.460Z,26.60
2018-06-02T11:26:18.012Z,26.50
2018-06-02T11:28:45.643Z,26.40
2018-06-02T11:31:13.195Z,26.30
2018-06-02T11:33:41.479Z,26.10
2018-06-02T11:36:09.796Z,26.20
2018-06-02T11:38:37.357Z,26.20
2018-06-02T11:41:04.925Z,26.40
2018-06-02T11:43:32.431Z,26.50
2018-06-02T11:45:59.934Z,26.60
2018-06-02T11:48:28.390Z,26.60
2018-06-02T11:50:55.902Z,26.60
2018-06-02T11:53:23.447Z,26.70
2018-06-02T11:55:51.084Z,26.60
2018-06-02T11:58:18.623Z,26.90
2018-06-02T12:00:46.197Z,27.10
2018-06-02T12:03:13.696Z,27.20
2018-06-02T12:05:41.255Z,27.50
2018-06-02T12:08:08.769Z,27.60
2018-06-02T12:10:36.302Z,27.80
2018-06-02T12:13:03.826Z,27.90
2018-06-02T12:15:31.382Z,27.90
2018-06-02T12:17:58.922Z,28.00
2018-06-02T12:20:26.428Z,28.10
2018-06-02T12:22:54.793Z,28.30
2018-06-02T12:25:22.321Z,28.20
2018-06-02T12:27:49.831Z,28.30
2018-06-02T12:30:18.146Z,28.40
2018-06-02T12:32:45.672Z,28.40
2018-06-02T12:35:13.761Z,28.40
2018-06-02T12:37:41.288Z,28.40
2018-06-02T12:40:08.846Z,28.40
2018-06-02T12:42:36.367Z,28.40
2018-06-02T12:45:03.910Z,28.40
2018-06-02T12:47:32.245Z,28.40
2018-06-02T12:49:59.819Z,28.50
2018-06-02T12:52:28.084Z,29.10
2018-06-02T12:54:56.383Z,29.30
2018-06-02T12:57:23.886Z,29.30
2018-06-02T12:59:51.426Z,29.50
2018-06-02T13:02:18.932Z,30.00
2018-06-02T13:04:46.486Z,30.10
2018-06-02T13:07:14.014Z,30.20
2018-06-02T13:09:41.523Z,29.80
2018-06-02T13:12:09.834Z,29.70
2018-06-02T13:14:37.374Z,29.60
2018-06-02T13:17:04.891Z,29.70
2018-06-02T13:19:32.404Z,29.60
2018-06-02T13:21:59.971Z,29.60
2018-06-02T13:24:27.476Z,29.30
2018-06-02T13:26:55.015Z,29.40
2018-06-02T13:29:22.538Z,29.80
2018-06-02T13:31:50.069Z,31.10
2018-06-02T13:34:18.342Z,32.20
2018-06-02T13:36:46.677Z,32.10
2018-06-02T13:39:14.192Z,32.10
2018-06-02T13:41:44.370Z,31.60
2018-06-02T13:44:11.905Z,31.20
2018-06-02T13:46:39.443Z,32.00
2018-06-02T13:49:06.948Z,32.30
2018-06-02T13:51:34.458Z,32.60
2018-06-02T13:54:02.007Z,32.10
2018-06-02T13:56:29.734Z,32.40
2018-06-02T13:58:57.235Z,32.40
2018-06-02T14:01:26.092Z,33.10
2018-06-02T14:03:55.182Z,32.40
2018-06-02T14:06:22.742Z,32.40
2018-06-02T14:08:50.300Z,32.40
2018-06-02T14:11:17.804Z,32.90
2018-06-02T14:13:45.337Z,33.40
2018-06-02T14:16:12.834Z,34.40
2018-06-02T14:18:40.715Z,35.50
2018-06-02T14:21:08.221Z,35.20
2018-06-02T14:23:36.534Z,34.20
2018-06-02T14:26:04.039Z,34.20
2018-06-02T14:28:31.595Z,34.30
2018-06-02T14:30:59.210Z,33.60
2018-06-02T14:33:26.757Z,34.30
2018-06-02T14:35:54.258Z,33.40
2018-06-02T14:38:21.809Z,32.80
2018-06-02T14:40:49.331Z,32.60
2018-06-02T14:43:16.879Z,34.20
2018-06-02T14:45:45.159Z,33.80
2018-06-02T14:48:12.734Z,33.70
2018-06-02T14:50:40.256Z,33.00
2018-06-02T14:53:07.812Z,32.40
2018-06-02T14:55:35.373Z,32.10
2018-06-02T14:58:02.968Z,32.60
2018-06-02T15:00:30.497Z,31.80
2018-06-02T15:02:58.051Z,31.00
2018-06-02T15:05:25.576Z,32.00
2018-06-02T15:07:53.135Z,33.00
2018-06-02T15:10:21.879Z,34.10
2018-06-02T15:12:49.449Z,35.20
2018-06-02T15:15:16.981Z,35.50
2018-06-02T15:17:44.536Z,34.40
2018-06-02T15:20:12.072Z,33.90
2018-06-02T15:22:39.643Z,34.30
2018-06-02T15:25:07.202Z,34.40
2018-06-02T15:27:34.775Z,33.50
2018-06-02T15:30:03.083Z,34.70
2018-06-02T15:32:30.686Z,34.70
2018-06-02T15:34:58.199Z,35.50
2018-06-02T15:37:25.738Z,35.40
2018-06-02T15:39:53.289Z,34.10
2018-06-02T15:42:20.889Z,33.30
2018-06-02T15:44:48.419Z,32.50
2018-06-02T15:47:16.735Z,32.10
2018-06-02T15:49:44.317Z,32.10
2018-06-02T15:52:11.912Z,33.30
2018-06-02T15:54:40.358Z,32.40
2018-06-02T15:57:08.782Z,33.00
2018-06-02T15:59:37.105Z,33.50
2018-06-02T16:02:04.590Z,33.50
2018-06-02T16:04:32.138Z,33.10
2018-06-02T16:06:59.683Z,32.60
2018-06-02T16:09:27.239Z,32.10
2018-06-02T16:11:54.904Z,32.80
2018-06-02T16:14:22.482Z,33.60
2018-06-02T16:16:50.006Z,34.30
2018-06-02T16:19:17.571Z,34.80
2018-06-02T16:21:45.087Z,33.30
2018-06-02T16:24:13.556Z,32.50
2018-06-02T16:26:41.071Z,31.80
2018-06-02T16:29:08.627Z,31.10
2018-06-02T16:31:36.142Z,30.60
2018-06-02T16:34:03.690Z,30.20
2018-06-02T16:36:31.190Z,29.80
2018-06-02T16:38:58.730Z,29.40
2018-06-02T16:41:26.291Z,29.10
2018-06-02T16:43:54.620Z,28.60
2018-06-02T16:46:22.130Z,28.60
2018-06-02T16:48:49.673Z,28.40
2018-06-02T16:51:18.876Z,27.80
2018-06-02T16:53:46.575Z,27.80
2018-06-02T16:56:14.245Z,27.60
2018-06-02T16:58:41.771Z,27.50
2018-06-02T17:01:10.114Z,27.30
2018-06-02T17:03:37.626Z,27.20
2018-06-02T17:06:05.237Z,27.10
2018-06-02T17:08:32.757Z,27.00
2018-06-02T17:11:00.310Z,27.00
2018-06-02T17:13:27.839Z,26.90
2018-06-02T17:15:56.162Z,26.90
2018-06-02T17:18:23.671Z,26.90
2018-06-02T17:20:51.989Z,26.90
2018-06-02T17:23:19.491Z,26.90
2018-06-02T17:25:47.069Z,26.90
2018-06-02T17:28:15.343Z,26.80
2018-06-02T17:30:43.673Z,26.70
2018-06-02T17:33:11.185Z,26.70
2018-06-02T17:35:38.735Z,26.60
2018-06-02T17:38:06.248Z,26.60
2018-06-02T17:40:34.374Z,26.50
2018-06-02T17:43:01.878Z,26.40
2018-06-02T17:45:29.422Z,26.30
2018-06-02T17:47:56.952Z,26.00
2018-06-02T17:50:25.630Z,25.90
2018-06-02T17:52:55.411Z,25.70
2018-06-02T17:55:24.672Z,25.70
2018-06-02T17:57:52.206Z,25.60
2018-06-02T18:00:19.793Z,25.60
2018-06-02T18:02:47.325Z,25.60
2018-06-02T18:05:15.942Z,25.30
2018-06-02T18:07:46.071Z,25.30
2018-06-02T18:10:14.352Z,25.20
2018-06-02T18:12:41.888Z,25.20
2018-06-02T18:15:09.433Z,25.20
2018-06-02T18:17:37.708Z,25.00
2018-06-02T18:20:05.303Z,25.00
2018-06-02T18:22:32.906Z,25.00
2018-06-02T18:25:00.445Z,24.90
2018-06-02T18:27:27.998Z,24.80
2018-06-02T18:29:56.315Z,24.50
2018-06-02T18:32:23.844Z,24.50
2018-06-02T18:34:51.390Z,24.40
2018-06-02T18:37:18.904Z,24.30
2018-06-02T18:39:47.235Z,24.10
2018-06-02T18:42:14.773Z,24.10
2018-06-02T18:44:42.407Z,24.10
2018-06-02T18:47:09.942Z,24.00
2018-06-02T18:49:37.513Z,24.00
2018-06-02T18:52:06.279Z,23.90
2018-06-02T18:54:33.866Z,23.80
2018-06-02T18:57:01.420Z,23.80
2018-06-02T18:59:59.276Z,23.80
2018-06-02T19:02:27.819Z,23.80
2018-06-02T19:04:56.446Z,23.80
2018-06-02T19:07:25.026Z,23.80
2018-06-02T19:09:56.375Z,23.80
2018-06-02T19:12:25.029Z,23.80
2018-06-02T19:14:53.531Z,23.80
2018-06-02T19:17:22.090Z,23.80
2018-06-02T19:19:50.676Z,23.80
2018-06-02T19:22:19.385Z,23.70
2018-06-02T19:24:48.052Z,23.80
2018-06-02T19:27:16.574Z,23.80
2018-06-02T19:29:45.234Z,23.80
2018-06-02T19:32:13.811Z,23.80
2018-06-02T19:34:42.439Z,23.70
2018-06-02T19:37:11.070Z,23.70
2018-06-02T19:39:39.614Z,23.70
2018-06-02T19:42:09.201Z,23.60
2018-06-02T19:44:38.207Z,23.60
2018-06-02T19:47:06.734Z,23.60
2018-06-02T19:49:35.269Z,23.60
2018-06-02T19:52:03.911Z,23.60
2018-06-02T19:54:32.525Z,23.60
2018-06-02T19:57:01.145Z,23.60
2018-06-02T19:59:29.670Z,23.60
2018-06-02T20:01:58.150Z,23.60
2018-06-02T20:04:26.700Z,23.50
2018-06-02T20:06:56.227Z,23.50
2018-06-02T20:09:24.867Z,23.50
2018-06-02T20:11:53.398Z,23.50
2018-06-02T20:14:22.245Z,23.50
2018-06-02T20:16:50.752Z,23.50
2018-06-02T20:19:19.420Z,23.50
2018-06-02T20:21:48.212Z,23.40
2018-06-02T20:24:16.772Z,23.40
2018-06-02T20:26:45.241Z,23.40
2018-06-02T20:29:13.899Z,23.30
2018-06-02T20:31:44.082Z,23.20
2018-06-02T20:34:12.660Z,23.20
2018-06-02T20:36:41.712Z,23.10
2018-06-02T20:39:11.546Z,23.00
2018-06-02T20:41:40.158Z,23.00
2018-06-02T20:44:09.316Z,23.00
2018-06-02T20:46:38.029Z,23.00
2018-06-02T20:49:06.559Z,22.90
2018-06-02T20:51:39.756Z,22.90
2018-06-02T20:54:08.444Z,22.90
2018-06-02T20:56:37.079Z,22.90
2018-06-02T20:59:05.709Z,22.90
2018-06-02T21:01:34.228Z,22.90
2018-06-02T21:04:02.803Z,22.90
2018-06-02T21:06:32.515Z,23.00
2018-06-02T21:09:01.118Z,22.90
2018-06-02T21:11:29.863Z,22.90
2018-06-02T21:13:58.424Z,22.90
2018-06-02T21:16:26.959Z,22.90
2018-06-02T21:18:55.443Z,22.80
2018-06-02T21:21:23.978Z,22.70
2018-06-02T21:23:52.529Z,22.70
2018-06-02T21:26:21.069Z,22.60
2018-06-02T21:28:49.608Z,22.50
2018-06-02T21:31:18.134Z,22.50
2018-06-02T21:33:46.713Z,22.40
2018-06-02T21:36:15.357Z,22.30
2018-06-02T21:38:43.895Z,22.30
2018-06-02T21:41:12.407Z,22.30
2018-06-02T21:43:40.938Z,22.20
2018-06-02T21:46:09.525Z,22.20
2018-06-02T21:48:38.072Z,22.20
2018-06-02T21:51:07.345Z,22.10
2018-06-02T21:53:35.854Z,22.10
2018-06-02T21:56:04.384Z,22.10
2018-06-02T21:58:33.036Z,22.10
2018-06-02T22:01:01.622Z,22.10
2018-06-02T22:03:31.344Z,22.00
2018-06-02T22:05:59.957Z,22.00
2018-06-02T22:08:28.752Z,22.00
2018-06-02T22:10:57.476Z,22.00
2018-06-02T22:13:27.414Z,21.90
2018-06-02T22:15:56.073Z,21.90
2018-06-02T22:18:24.653Z,21.90
2018-06-02T22:20:53.264Z,21.80
2018-06-02T22:23:22.137Z,21.70
2018-06-02T22:25:50.631Z,21.70
2018-06-02T22:28:19.405Z,21.70
2018-06-02T22:30:48.725Z,21.70
2018-06-02T22:33:17.266Z,21.60
2018-06-02T22:35:45.862Z,21.60
2018-06-02T22:38:14.447Z,21.50
2018-06-02T22:40:42.992Z,21.50
2018-06-02T22:43:11.658Z,21.50
2018-06-02T22:45:40.190Z,21.50
2018-06-02T22:48:08.752Z,21.40
2018-06-02T22:50:37.264Z,21.40
2018-06-02T22:53:05.863Z,21.30
2018-06-02T22:55:34.453Z,21.30
2018-06-02T22:58:03.092Z,21.20
2018-06-02T23:00:31.805Z,21.20
2018-06-02T23:03:00.425Z,21.20
2018-06-02T23:05:28.956Z,21.10
2018-06-02T23:07:57.690Z,21.00
2018-06-02T23:10:26.210Z,21.00
2018-06-02T23:12:54.727Z,21.00
2018-06-02T23:15:23.222Z,20.90
2018-06-02T23:17:51.725Z,20.90
2018-06-02T23:20:20.216Z,20.90
2018-06-02T23:22:48.732Z,20.90
2018-06-02T23:25:17.237Z,20.90
2018-06-02T23:27:45.767Z,21.00
2018-06-02T23:30:14.279Z,21.00
2018-06-02T23:32:43.583Z,21.00
2018-06-02T23:35:12.100Z,21.00
2018-06-02T23:37:40.593Z,21.00
2018-06-02T23:40:09.120Z,21.00
2018-06-02T23:42:37.621Z,21.00
2018-06-02T23:45:06.267Z,21.00
2018-06-02T23:47:34.752Z,20.90
2018-06-02T23:50:04.387Z,20.90
2018-06-02T23:52:32.899Z,20.80
2018-06-02T23:55:01.419Z,20.90
2018-06-02T23:57:29.898Z,20.80
2018-06-02T23:59:58.447Z,20.80
